Terminal Aerodrome Forecast
Issued by NWS

Home | Current Version | Previous Version | Text Only | Print | Product List | Glossary On
Versions: 1 2 3 4 5 6 7 8 9 10 11 12 13 14 15 16 17
000
FTUS44 KMAF 191500 AAA
TAFPEQ
TAF AMD
KPEQ 191520Z 1915/2012 06006KT 5SM -RA OVC015
      TEMPO 1915/1919 3SM TSRA BR OVC006CB
     FM191900 10006KT P6SM OVC040
      TEMPO 1919/1923 5SM TSRA OVC030CB
     FM200600 07004KT 6SM BR OVC035=

USA.gov is the U.S. government's official web portal to all federal, state and local government web resources and services.